createdAt,value
2023-05-17T00:00:34.449Z,487.00
2023-05-17T00:01:34.284Z,490.00
2023-05-17T00:02:34.411Z,489.00
2023-05-17T00:03:34.356Z,490.00
2023-05-17T00:04:34.477Z,489.00
2023-05-17T00:05:34.523Z,486.00
2023-05-17T00:06:34.640Z,487.00
2023-05-17T00:07:34.631Z,488.00
2023-05-17T00:08:34.661Z,487.00
2023-05-17T00:09:34.758Z,485.00
2023-05-17T00:10:34.786Z,486.00
2023-05-17T00:11:34.877Z,488.00
2023-05-17T00:12:34.955Z,486.00
2023-05-17T00:13:34.998Z,488.00
2023-05-17T00:14:35.101Z,491.00
2023-05-17T00:15:35.140Z,491.00
2023-05-17T00:16:35.288Z,492.00
2023-05-17T00:17:35.348Z,491.00
2023-05-17T00:18:35.422Z,491.00
2023-05-17T00:19:35.454Z,492.00
2023-05-17T00:20:35.456Z,489.00
2023-05-17T00:21:35.513Z,492.00
2023-05-17T00:22:35.575Z,490.00
2023-05-17T00:23:35.652Z,490.00
2023-05-17T00:24:35.719Z,492.00
2023-05-17T00:25:35.769Z,491.00
2023-05-17T00:26:35.833Z,489.00
2023-05-17T00:27:35.898Z,487.00
2023-05-17T00:28:35.962Z,486.00
2023-05-17T00:29:36.041Z,485.00
2023-05-17T00:30:36.069Z,486.00
2023-05-17T00:31:36.143Z,486.00
2023-05-17T00:32:36.317Z,486.00
2023-05-17T00:33:36.257Z,486.00
2023-05-17T00:34:36.415Z,486.00
2023-05-17T00:35:36.413Z,486.00
2023-05-17T00:36:36.493Z,489.00
2023-05-17T00:37:36.554Z,490.00
2023-05-17T00:38:36.594Z,490.00
2023-05-17T00:39:36.663Z,486.00
2023-05-17T00:40:36.758Z,485.00
2023-05-17T00:41:36.816Z,485.00
2023-05-17T00:42:36.866Z,487.00
2023-05-17T00:43:36.933Z,488.00
2023-05-17T00:44:36.978Z,489.00
2023-05-17T00:45:37.035Z,487.00
2023-05-17T00:46:37.120Z,486.00
2023-05-17T00:47:37.296Z,486.00
2023-05-17T00:48:38.194Z,486.00
2023-05-17T00:49:37.282Z,485.00
2023-05-17T00:50:37.361Z,487.00
2023-05-17T00:51:37.451Z,484.00
2023-05-17T00:52:37.477Z,485.00
2023-05-17T00:53:37.516Z,484.00
2023-05-17T00:54:37.604Z,486.00
2023-05-17T00:55:37.632Z,487.00
2023-05-17T00:56:37.720Z,487.00
2023-05-17T00:57:37.805Z,489.00
2023-05-17T00:58:37.812Z,487.00
2023-05-17T00:59:37.903Z,482.00
2023-05-17T01:00:38.048Z,482.00
2023-05-17T01:01:38.008Z,481.00
2023-05-17T01:02:38.155Z,483.00
2023-05-17T01:03:38.240Z,483.00
2023-05-17T01:04:38.407Z,482.00
2023-05-17T01:05:38.374Z,480.00
2023-05-17T01:06:38.355Z,481.00
2023-05-17T01:07:38.434Z,483.00
2023-05-17T01:08:38.455Z,481.00
2023-05-17T01:09:38.524Z,483.00
2023-05-17T01:10:38.575Z,483.00
2023-05-17T01:11:38.658Z,485.00
2023-05-17T01:12:38.729Z,487.00
2023-05-17T01:13:38.796Z,486.00
2023-05-17T01:14:38.827Z,486.00
2023-05-17T01:15:38.896Z,486.00
2023-05-17T01:16:38.970Z,487.00
2023-05-17T01:17:39.102Z,485.00
2023-05-17T01:18:39.216Z,484.00
2023-05-17T01:19:39.217Z,486.00
2023-05-17T01:20:39.527Z,490.00
2023-05-17T01:21:39.277Z,487.00
2023-05-17T01:22:39.371Z,483.00
2023-05-17T01:23:39.382Z,482.00
2023-05-17T01:24:39.500Z,482.00
2023-05-17T01:25:39.528Z,481.00
2023-05-17T01:26:39.584Z,482.00
2023-05-17T01:27:39.637Z,483.00
2023-05-17T01:28:39.692Z,493.00
2023-05-17T01:29:39.786Z,492.00
2023-05-17T01:30:39.836Z,494.00
2023-05-17T01:31:39.871Z,492.00
2023-05-17T01:32:39.980Z,491.00
2023-05-17T01:33:40.132Z,491.00
2023-05-17T01:34:40.063Z,494.00
2023-05-17T01:35:40.137Z,490.00
2023-05-17T01:36:40.323Z,488.00
2023-05-17T01:37:40.262Z,490.00
2023-05-17T01:38:40.314Z,487.00
2023-05-17T01:39:40.377Z,488.00
2023-05-17T01:40:40.425Z,486.00
2023-05-17T01:41:40.521Z,484.00
2023-05-17T01:42:40.555Z,485.00
2023-05-17T01:43:40.633Z,484.00
2023-05-17T01:44:40.695Z,486.00
2023-05-17T01:45:40.765Z,489.00
2023-05-17T01:46:40.834Z,484.00
2023-05-17T01:47:40.982Z,486.00
2023-05-17T01:48:41.010Z,487.00
2023-05-17T01:49:41.026Z,486.00
2023-05-17T01:50:41.119Z,486.00
2023-05-17T01:51:41.146Z,486.00
2023-05-17T01:52:41.307Z,486.00
2023-05-17T01:53:41.278Z,487.00
2023-05-17T01:54:41.328Z,487.00
2023-05-17T01:55:41.409Z,483.00
2023-05-17T01:56:41.457Z,485.00
2023-05-17T01:57:41.510Z,486.00
2023-05-17T01:58:41.576Z,486.00
2023-05-17T01:59:41.629Z,489.00
2023-05-17T02:00:41.723Z,491.00
2023-05-17T02:01:41.779Z,491.00
2023-05-17T02:02:41.878Z,490.00
2023-05-17T02:03:41.957Z,489.00
2023-05-17T02:04:42.050Z,485.00
2023-05-17T02:05:42.053Z,489.00
2023-05-17T02:06:42.084Z,489.00
2023-05-17T02:07:42.168Z,489.00
2023-05-17T02:08:42.278Z,489.00
2023-05-17T02:09:42.304Z,490.00
2023-05-17T02:10:42.356Z,489.00
2023-05-17T02:11:42.415Z,487.00
2023-05-17T02:12:42.476Z,488.00
2023-05-17T02:13:42.516Z,487.00
2023-05-17T02:14:42.581Z,486.00
2023-05-17T02:15:42.651Z,486.00
2023-05-17T02:16:42.694Z,485.00
2023-05-17T02:17:42.860Z,484.00
2023-05-17T02:18:42.868Z,486.00
2023-05-17T02:19:42.856Z,486.00
2023-05-17T02:20:42.935Z,488.00
2023-05-17T02:21:42.986Z,488.00
2023-05-17T02:22:43.103Z,488.00
2023-05-17T02:23:43.073Z,488.00
2023-05-17T02:24:43.208Z,487.00
2023-05-17T02:25:43.225Z,488.00
2023-05-17T02:26:43.369Z,488.00
2023-05-17T02:27:43.384Z,490.00
2023-05-17T02:28:43.399Z,490.00
2023-05-17T02:29:43.464Z,488.00
2023-05-17T02:30:43.515Z,488.00
2023-05-17T02:31:43.568Z,490.00
2023-05-17T02:32:43.705Z,490.00
2023-05-17T02:33:43.819Z,492.00
2023-05-17T02:34:43.754Z,490.00
2023-05-17T02:35:43.825Z,493.00
2023-05-17T02:36:43.885Z,495.00
2023-05-17T02:37:43.938Z,494.00
2023-05-17T02:38:44.035Z,498.00
2023-05-17T02:39:44.062Z,495.00
2023-05-17T02:40:44.257Z,494.00
2023-05-17T02:41:44.168Z,493.00
2023-05-17T02:42:44.221Z,493.00
2023-05-17T02:43:44.284Z,496.00
2023-05-17T02:44:44.376Z,495.00
2023-05-17T02:45:44.403Z,495.00
2023-05-17T02:46:44.491Z,493.00
2023-05-17T02:47:44.697Z,491.00
2023-05-17T02:48:44.596Z,491.00
2023-05-17T02:49:44.654Z,490.00
2023-05-17T02:50:44.715Z,490.00
2023-05-17T02:51:44.780Z,490.00
2023-05-17T02:52:44.797Z,487.00
2023-05-17T02:53:44.888Z,486.00
2023-05-17T02:54:44.948Z,489.00
2023-05-17T02:55:45.029Z,490.00
2023-05-17T02:56:45.159Z,491.00
2023-05-17T02:57:45.151Z,488.00
2023-05-17T02:58:45.191Z,486.00
2023-05-17T02:59:45.234Z,491.00
2023-05-17T03:00:45.386Z,493.00
2023-05-17T03:01:45.356Z,495.00
2023-05-17T03:02:45.539Z,492.00
2023-05-17T03:03:45.753Z,494.00
2023-05-17T03:04:45.700Z,492.00
2023-05-17T03:05:45.636Z,493.00
2023-05-17T03:06:45.682Z,494.00
2023-05-17T03:07:45.749Z,494.00
2023-05-17T03:08:45.781Z,496.00
2023-05-17T03:09:45.873Z,497.00
2023-05-17T03:10:45.897Z,496.00
2023-05-17T03:11:45.981Z,497.00
2023-05-17T03:12:46.160Z,496.00
2023-05-17T03:13:46.098Z,496.00
2023-05-17T03:14:46.163Z,495.00
2023-05-17T03:15:46.205Z,495.00
2023-05-17T03:16:46.261Z,494.00
2023-05-17T03:17:46.419Z,494.00
2023-05-17T03:18:46.582Z,496.00
2023-05-17T03:19:46.488Z,496.00
2023-05-17T03:20:46.521Z,495.00
2023-05-17T03:21:46.597Z,494.00
2023-05-17T03:22:46.677Z,495.00
2023-05-17T03:23:46.737Z,492.00
2023-05-17T03:24:46.788Z,495.00
2023-05-17T03:25:46.833Z,495.00
2023-05-17T03:26:46.898Z,494.00
2023-05-17T03:27:47.023Z,494.00
2023-05-17T03:28:47.097Z,496.00
2023-05-17T03:29:47.100Z,495.00
2023-05-17T03:30:47.214Z,494.00
2023-05-17T03:31:47.208Z,495.00
2023-05-17T03:32:47.307Z,496.00
2023-05-17T03:33:47.395Z,496.00
2023-05-17T03:34:47.405Z,495.00
2023-05-17T03:35:47.442Z,491.00
2023-05-17T03:36:47.524Z,490.00
2023-05-17T03:37:47.567Z,489.00
2023-05-17T03:38:47.647Z,490.00
2023-05-17T03:39:47.725Z,490.00
2023-05-17T03:40:47.775Z,488.00
2023-05-17T03:41:47.821Z,489.00
2023-05-17T03:42:47.935Z,487.00
2023-05-17T03:43:47.974Z,490.00
2023-05-17T03:44:48.001Z,491.00
2023-05-17T03:45:48.076Z,493.00
2023-05-17T03:46:48.141Z,494.00
2023-05-17T03:47:48.269Z,496.00
2023-05-17T03:48:48.286Z,493.00
2023-05-17T03:49:48.332Z,495.00
2023-05-17T03:50:48.376Z,496.00
2023-05-17T03:51:48.438Z,497.00
2023-05-17T03:52:48.613Z,498.00
2023-05-17T03:53:48.555Z,497.00
2023-05-17T03:54:48.642Z,499.00
2023-05-17T03:55:48.706Z,500.00
2023-05-17T03:56:48.794Z,495.00
2023-05-17T03:57:48.824Z,491.00
2023-05-17T03:58:48.899Z,493.00
2023-05-17T03:59:49.017Z,491.00
2023-05-17T04:00:49.157Z,492.00
2023-05-17T04:01:49.089Z,490.00
2023-05-17T04:02:49.146Z,492.00
2023-05-17T04:03:49.226Z,490.00
2023-05-17T04:04:49.287Z,490.00
2023-05-17T04:05:49.310Z,489.00
2023-05-17T04:06:49.371Z,490.00
2023-05-17T04:07:49.472Z,487.00
2023-05-17T04:08:49.542Z,483.00
2023-05-17T04:09:49.569Z,485.00
2023-05-17T04:10:49.635Z,484.00
2023-05-17T04:11:49.702Z,487.00
2023-05-17T04:12:49.765Z,485.00
2023-05-17T04:13:49.815Z,485.00
2023-05-17T04:14:49.912Z,484.00
2023-05-17T04:15:49.975Z,483.00
2023-05-17T04:16:50.221Z,486.00
2023-05-17T04:17:50.184Z,489.00
2023-05-17T04:18:50.223Z,488.00
2023-05-17T04:19:50.366Z,486.00
2023-05-17T04:20:50.264Z,484.00
2023-05-17T04:21:50.376Z,482.00
2023-05-17T04:22:50.407Z,484.00
2023-05-17T04:23:50.478Z,485.00
2023-05-17T04:24:50.564Z,486.00
2023-05-17T04:25:50.635Z,488.00
2023-05-17T04:26:50.666Z,488.00
2023-05-17T04:27:50.730Z,489.00
2023-05-17T04:28:50.771Z,490.00
2023-05-17T04:29:50.848Z,489.00
2023-05-17T04:30:50.887Z,490.00
2023-05-17T04:31:50.987Z,490.00
2023-05-17T04:32:51.149Z,489.00
2023-05-17T04:33:51.144Z,490.00
2023-05-17T04:34:51.156Z,491.00
2023-05-17T04:35:51.215Z,489.00
2023-05-17T04:36:51.326Z,489.00
2023-05-17T04:37:51.371Z,490.00
2023-05-17T04:38:51.413Z,490.00
2023-05-17T04:39:51.495Z,491.00
2023-05-17T04:40:51.545Z,489.00
2023-05-17T04:41:51.568Z,487.00
2023-05-17T04:42:51.712Z,487.00
2023-05-17T04:43:51.701Z,487.00
2023-05-17T04:44:51.768Z,487.00
2023-05-17T04:45:51.865Z,488.00
2023-05-17T04:46:51.937Z,487.00
2023-05-17T04:47:52.055Z,487.00
2023-05-17T04:48:52.240Z,482.00
2023-05-17T04:49:52.117Z,481.00
2023-05-17T04:50:52.172Z,481.00
2023-05-17T04:51:52.182Z,476.00
2023-05-17T04:52:52.253Z,476.00
2023-05-17T04:53:52.330Z,481.00
2023-05-17T04:54:52.396Z,475.00
2023-05-17T04:55:52.391Z,477.00
2023-05-17T04:56:52.441Z,477.00
2023-05-17T04:57:52.502Z,476.00
2023-05-17T04:58:53.065Z,477.00
2023-05-17T04:59:52.505Z,476.00
2023-05-17T05:00:52.492Z,476.00
2023-05-17T05:01:52.518Z,477.00
2023-05-17T05:02:52.503Z,476.00
2023-05-17T05:03:52.530Z,476.00
2023-05-17T05:04:52.730Z,474.00
2023-05-17T05:05:52.573Z,471.00
2023-05-17T05:06:52.533Z,470.00
2023-05-17T05:07:52.560Z,467.00
2023-05-17T05:08:52.625Z,468.00
2023-05-17T05:09:52.576Z,468.00
2023-05-17T05:10:52.639Z,468.00
2023-05-17T05:11:52.669Z,468.00
2023-05-17T05:12:52.673Z,468.00
2023-05-17T05:13:52.697Z,468.00
2023-05-17T05:14:52.767Z,468.00
2023-05-17T05:15:52.779Z,467.00
2023-05-17T05:16:52.843Z,467.00
2023-05-17T05:17:53.013Z,469.00
2023-05-17T05:18:53.148Z,468.00
2023-05-17T05:19:53.005Z,468.00
2023-05-17T05:20:53.028Z,470.00
2023-05-17T05:21:53.002Z,468.00
2023-05-17T05:22:53.022Z,469.00
2023-05-17T05:23:53.092Z,467.00
2023-05-17T05:24:53.078Z,466.00
2023-05-17T05:25:53.142Z,467.00
2023-05-17T05:26:53.205Z,468.00
2023-05-17T05:27:53.246Z,467.00
2023-05-17T05:28:53.341Z,466.00
2023-05-17T05:29:53.325Z,467.00
2023-05-17T05:30:53.463Z,466.00
2023-05-17T05:31:53.476Z,465.00
2023-05-17T05:32:53.661Z,466.00
2023-05-17T05:33:53.576Z,467.00
2023-05-17T05:34:53.669Z,464.00
2023-05-17T05:35:53.671Z,464.00
2023-05-17T05:36:53.739Z,464.00
2023-05-17T05:37:53.857Z,482.00
2023-05-17T05:38:53.835Z,483.00
2023-05-17T05:39:53.869Z,488.00
2023-05-17T05:40:53.898Z,499.00
2023-05-17T05:41:55.614Z,521.00
2023-05-17T05:42:54.009Z,517.00
2023-05-17T05:43:54.007Z,524.00
2023-05-17T05:44:54.037Z,535.00
2023-05-17T05:45:54.052Z,544.00
2023-05-17T05:46:54.099Z,553.00
2023-05-17T05:47:54.207Z,559.00
2023-05-17T05:48:54.128Z,570.00
2023-05-17T05:49:54.151Z,598.00
2023-05-17T05:50:54.189Z,617.00
2023-05-17T05:51:54.170Z,632.00
2023-05-17T05:52:58.034Z,637.00
2023-05-17T05:53:55.186Z,656.00
2023-05-17T05:54:54.201Z,691.00
2023-05-17T05:55:54.178Z,713.00
2023-05-17T05:56:54.161Z,725.00
2023-05-17T05:57:54.128Z,735.00
2023-05-17T05:58:54.129Z,774.00
2023-05-17T05:59:54.168Z,795.00
2023-05-17T06:00:54.200Z,814.00
2023-05-17T06:01:54.121Z,833.00
2023-05-17T06:02:54.190Z,840.00
2023-05-17T06:03:54.116Z,852.00
2023-05-17T06:04:54.097Z,861.00
2023-05-17T06:05:54.153Z,926.00
2023-05-17T06:06:54.318Z,939.00
2023-05-17T06:07:54.113Z,945.00
2023-05-17T06:08:54.154Z,954.00
2023-05-17T06:09:54.118Z,962.00
2023-05-17T06:10:54.054Z,986.00
2023-05-17T06:11:54.131Z,999.00
2023-05-17T06:12:54.286Z,1012.00
2023-05-17T06:13:54.314Z,1024.00
2023-05-17T06:14:54.329Z,1033.00
2023-05-17T06:15:54.406Z,1035.00
2023-05-17T06:16:54.465Z,1040.00
2023-05-17T06:17:54.541Z,1054.00
2023-05-17T06:18:54.617Z,1059.00
2023-05-17T06:19:54.675Z,1071.00
2023-05-17T06:20:54.816Z,1080.00
2023-05-17T06:21:54.677Z,1090.00
2023-05-17T06:22:54.727Z,1109.00
2023-05-17T06:23:54.784Z,1119.00
2023-05-17T06:24:55.074Z,1130.00
2023-05-17T06:25:54.855Z,1137.00
2023-05-17T06:26:54.899Z,1145.00
2023-05-17T06:27:54.945Z,1161.00
2023-05-17T06:28:54.966Z,1173.00
2023-05-17T06:29:55.044Z,1183.00
2023-05-17T06:30:55.044Z,1193.00
2023-05-17T06:31:55.114Z,1192.00
2023-05-17T06:32:55.180Z,1197.00
2023-05-17T06:33:55.118Z,1204.00
2023-05-17T06:34:55.075Z,1205.00
2023-05-17T06:35:57.493Z,1219.00
2023-05-17T06:36:55.564Z,1227.00
2023-05-17T06:37:55.076Z,1236.00
2023-05-17T06:38:55.056Z,1245.00
2023-05-17T06:40:00.129Z,1245.00
2023-05-17T06:40:56.036Z,1245.00
2023-05-17T06:41:55.026Z,1259.00
2023-05-17T06:42:55.023Z,1273.00
2023-05-17T06:43:55.017Z,1287.00
2023-05-17T06:44:55.001Z,1344.00
2023-05-17T06:45:55.000Z,1333.00
2023-05-17T06:46:54.979Z,1348.00
2023-05-17T06:47:55.014Z,1352.00
2023-05-17T06:48:55.074Z,1348.00
2023-05-17T06:49:55.004Z,1405.00
2023-05-17T06:50:54.991Z,1386.00
2023-05-17T06:51:54.986Z,1428.00
2023-05-17T06:52:54.965Z,1465.00
2023-05-17T06:53:54.974Z,1446.00
2023-05-17T06:54:54.934Z,1449.00
2023-05-17T06:55:54.938Z,1445.00
2023-05-17T06:56:55.130Z,1484.00
2023-05-17T06:57:55.002Z,1470.00
2023-05-17T06:58:55.077Z,1472.00
2023-05-17T06:59:55.097Z,1457.00
2023-05-17T07:00:55.136Z,1459.00
2023-05-17T07:01:55.143Z,1425.00
2023-05-17T07:02:55.203Z,1412.00
2023-05-17T07:03:55.430Z,1391.00
2023-05-17T07:04:55.303Z,1352.00
2023-05-17T07:05:55.262Z,1351.00
2023-05-17T07:06:55.304Z,1324.00
2023-05-17T07:07:55.356Z,1320.00
2023-05-17T07:08:55.384Z,1327.00
2023-05-17T07:09:56.420Z,1326.00
2023-05-17T07:10:55.385Z,1328.00
2023-05-17T07:11:55.386Z,1331.00
2023-05-17T07:12:55.528Z,1335.00
2023-05-17T07:13:55.448Z,1340.00
2023-05-17T07:14:55.576Z,1351.00
2023-05-17T07:15:55.454Z,1360.00
2023-05-17T07:16:55.466Z,1370.00
2023-05-17T07:17:55.479Z,1362.00
2023-05-17T07:18:55.456Z,1370.00
2023-05-17T07:19:55.488Z,1377.00
2023-05-17T07:20:55.433Z,1379.00
2023-05-17T07:21:55.623Z,1386.00
2023-05-17T07:22:55.460Z,1388.00
2023-05-17T07:23:55.457Z,1391.00
2023-05-17T07:24:55.424Z,1399.00
2023-05-17T07:25:55.435Z,1401.00
2023-05-17T07:26:55.424Z,1392.00
2023-05-17T07:27:55.471Z,1401.00
2023-05-17T07:28:55.728Z,1398.00
2023-05-17T07:29:55.448Z,1403.00
2023-05-17T07:30:55.441Z,1409.00
2023-05-17T07:31:55.479Z,1408.00
2023-05-17T07:32:55.544Z,1408.00
2023-05-17T07:33:55.496Z,1432.00
2023-05-17T07:34:55.495Z,1454.00
2023-05-17T07:35:55.530Z,1434.00
2023-05-17T07:36:55.536Z,1439.00
2023-05-17T07:37:55.543Z,1438.00
2023-05-17T07:38:55.514Z,1437.00
2023-05-17T07:39:55.525Z,1438.00
2023-05-17T07:40:55.543Z,1445.00
2023-05-17T07:41:55.537Z,1457.00
2023-05-17T07:42:55.540Z,1472.00
2023-05-17T07:43:55.545Z,1481.00
2023-05-17T07:44:55.791Z,1420.00
2023-05-17T07:45:55.547Z,1406.00
2023-05-17T07:46:55.597Z,1395.00
2023-05-17T07:47:55.583Z,1391.00
2023-05-17T07:48:58.298Z,1395.00
2023-05-17T07:49:56.509Z,1306.00
2023-05-17T07:50:55.520Z,1299.00
2023-05-17T07:51:55.540Z,1289.00
2023-05-17T07:52:55.511Z,1288.00
2023-05-17T07:53:55.487Z,1285.00
2023-05-17T07:54:55.488Z,1231.00
2023-05-17T07:55:55.507Z,1224.00
2023-05-17T07:56:55.509Z,1213.00
2023-05-17T07:57:55.492Z,1206.00
2023-05-17T07:58:55.574Z,1183.00
2023-05-17T07:59:55.622Z,1178.00
2023-05-17T08:00:55.710Z,1166.00
2023-05-17T08:01:55.719Z,1170.00
2023-05-17T08:02:55.822Z,1148.00
2023-05-17T08:03:55.862Z,1106.00
2023-05-17T08:04:56.034Z,1095.00
2023-05-17T08:05:55.991Z,1090.00
2023-05-17T08:06:55.981Z,1084.00
2023-05-17T08:07:56.037Z,1069.00
2023-05-17T08:08:56.119Z,1054.00
2023-05-17T08:09:56.128Z,1041.00
2023-05-17T08:10:56.102Z,1031.00
2023-05-17T08:11:56.133Z,1007.00
2023-05-17T08:12:56.152Z,997.00
2023-05-17T08:13:56.179Z,987.00
2023-05-17T08:14:56.298Z,978.00
2023-05-17T08:16:05.065Z,951.00
2023-05-17T08:16:57.343Z,950.00
2023-05-17T08:17:56.426Z,944.00
2023-05-17T08:18:56.418Z,930.00
2023-05-17T08:19:56.357Z,920.00
2023-05-17T08:20:56.262Z,906.00
2023-05-17T08:21:56.476Z,902.00
2023-05-17T08:22:56.274Z,898.00
2023-05-17T08:23:56.243Z,889.00
2023-05-17T08:24:56.266Z,881.00
2023-05-17T08:25:56.225Z,867.00
2023-05-17T08:26:56.236Z,853.00
2023-05-17T08:27:56.242Z,854.00
2023-05-17T08:28:56.241Z,857.00
2023-05-17T08:29:56.258Z,843.00
2023-05-17T08:30:56.235Z,835.00
2023-05-17T08:31:56.198Z,832.00
2023-05-17T08:32:56.301Z,825.00
2023-05-17T08:33:56.226Z,820.00
2023-05-17T08:34:56.179Z,803.00
2023-05-17T08:35:56.226Z,802.00
2023-05-17T08:36:56.299Z,800.00
2023-05-17T08:37:56.297Z,794.00
2023-05-17T08:38:56.349Z,786.00
2023-05-17T08:39:56.396Z,785.00
2023-05-17T08:40:56.387Z,776.00
2023-05-17T08:41:56.443Z,771.00
2023-05-17T08:42:56.440Z,762.00
2023-05-17T08:43:56.478Z,749.00
2023-05-17T08:44:56.567Z,752.00
2023-05-17T08:45:56.597Z,743.00
2023-05-17T08:46:56.595Z,741.00
2023-05-17T08:47:56.716Z,726.00
2023-05-17T08:48:56.763Z,739.00
2023-05-17T08:49:56.696Z,732.00
2023-05-17T08:50:56.771Z,724.00
2023-05-17T08:51:56.770Z,725.00
2023-05-17T08:52:56.812Z,719.00
2023-05-17T08:53:56.823Z,710.00
2023-05-17T08:54:56.804Z,704.00
2023-05-17T08:55:56.851Z,699.00
2023-05-17T08:56:57.129Z,696.00
2023-05-17T08:57:56.941Z,694.00
2023-05-17T08:58:58.167Z,693.00
2023-05-17T08:59:56.905Z,689.00
2023-05-17T09:00:56.961Z,684.00
2023-05-17T09:01:56.903Z,683.00
2023-05-17T09:02:56.986Z,675.00
2023-05-17T09:03:56.885Z,672.00
2023-05-17T09:04:57.010Z,669.00
2023-05-17T09:05:56.977Z,662.00
2023-05-17T09:06:56.916Z,663.00
2023-05-17T09:07:57.004Z,668.00
2023-05-17T09:08:56.956Z,672.00
2023-05-17T09:09:57.021Z,674.00
2023-05-17T09:10:57.067Z,678.00
2023-05-17T09:11:57.111Z,678.00
2023-05-17T09:12:57.162Z,684.00
2023-05-17T09:13:57.226Z,690.00
2023-05-17T09:14:57.305Z,694.00
2023-05-17T09:15:57.309Z,694.00
2023-05-17T09:16:57.408Z,696.00
2023-05-17T09:17:57.418Z,693.00
2023-05-17T09:18:57.489Z,691.00
2023-05-17T09:19:57.640Z,688.00
2023-05-17T09:20:57.404Z,686.00
2023-05-17T09:21:57.447Z,686.00
2023-05-17T09:22:57.436Z,683.00
2023-05-17T09:24:06.308Z,683.00
2023-05-17T09:24:59.157Z,685.00
2023-05-17T09:25:57.438Z,707.00
2023-05-17T09:26:57.448Z,697.00
2023-05-17T09:27:57.424Z,701.00
2023-05-17T09:28:57.427Z,707.00
2023-05-17T09:29:57.417Z,710.00
2023-05-17T09:30:57.378Z,715.00
2023-05-17T09:31:57.392Z,713.00
2023-05-17T09:32:57.371Z,711.00
2023-05-17T09:33:57.454Z,711.00
2023-05-17T09:34:57.378Z,722.00
2023-05-17T09:35:57.398Z,767.00
2023-05-17T09:36:57.365Z,800.00
2023-05-17T09:37:57.376Z,802.00
2023-05-17T09:38:57.353Z,854.00
2023-05-17T09:39:57.318Z,876.00
2023-05-17T09:40:57.326Z,872.00
2023-05-17T09:41:57.350Z,879.00
2023-05-17T09:42:57.329Z,942.00
2023-05-17T09:43:57.403Z,963.00
2023-05-17T09:44:57.317Z,986.00
2023-05-17T09:45:57.289Z,996.00
2023-05-17T09:46:57.279Z,1001.00
2023-05-17T09:47:57.323Z,1009.00
2023-05-17T09:48:57.377Z,1018.00
2023-05-17T09:49:57.280Z,1020.00
2023-05-17T09:50:57.260Z,1012.00
2023-05-17T09:51:57.243Z,992.00
2023-05-17T09:52:57.271Z,987.00
2023-05-17T09:53:57.257Z,976.00
2023-05-17T09:54:57.246Z,967.00
2023-05-17T09:55:57.293Z,959.00
2023-05-17T09:56:57.253Z,931.00
2023-05-17T09:57:57.237Z,915.00
2023-05-17T09:58:57.283Z,905.00
2023-05-17T09:59:57.266Z,898.00
2023-05-17T10:00:57.292Z,893.00
2023-05-17T10:01:57.315Z,873.00
2023-05-17T10:02:57.361Z,862.00
2023-05-17T10:03:57.339Z,857.00
2023-05-17T10:04:57.298Z,851.00
2023-05-17T10:05:57.304Z,834.00
2023-05-17T10:06:57.301Z,822.00
2023-05-17T10:07:57.272Z,811.00
2023-05-17T10:08:57.318Z,805.00
2023-05-17T10:09:57.270Z,797.00
2023-05-17T10:10:57.344Z,788.00
2023-05-17T10:11:57.315Z,777.00
2023-05-17T10:12:57.321Z,758.00
2023-05-17T10:13:57.355Z,753.00
2023-05-17T10:14:57.385Z,748.00
2023-05-17T10:15:57.348Z,739.00
2023-05-17T10:16:57.395Z,729.00
2023-05-17T10:17:57.446Z,724.00
2023-05-17T10:18:57.503Z,720.00
2023-05-17T10:19:57.572Z,714.00
2023-05-17T10:20:57.414Z,709.00
2023-05-17T10:22:00.349Z,706.00
2023-05-17T10:22:58.676Z,698.00
2023-05-17T10:23:57.413Z,691.00
2023-05-17T10:24:57.396Z,689.00
2023-05-17T10:25:57.419Z,682.00
2023-05-17T10:26:57.373Z,681.00
2023-05-17T10:27:57.392Z,675.00
2023-05-17T10:28:57.403Z,666.00
2023-05-17T10:29:57.361Z,659.00
2023-05-17T10:30:57.379Z,658.00
2023-05-17T10:31:57.358Z,654.00
2023-05-17T10:32:57.362Z,650.00
2023-05-17T10:33:57.375Z,644.00
2023-05-17T10:35:10.409Z,650.00
2023-05-17T10:35:58.312Z,648.00
2023-05-17T10:36:57.324Z,645.00
2023-05-17T10:37:57.271Z,657.00
2023-05-17T10:38:57.307Z,798.00
2023-05-17T10:39:57.291Z,815.00
2023-05-17T10:40:57.266Z,837.00
2023-05-17T10:42:12.954Z,828.00
2023-05-17T10:42:58.290Z,828.00
2023-05-17T10:43:57.289Z,831.00
2023-05-17T10:44:57.249Z,828.00
2023-05-17T10:45:57.244Z,828.00
2023-05-17T10:46:57.275Z,828.00
2023-05-17T10:47:58.904Z,822.00
2023-05-17T10:48:57.295Z,822.00
2023-05-17T10:49:57.212Z,817.00
2023-05-17T10:51:01.820Z,816.00
2023-05-17T10:51:58.219Z,814.00
2023-05-17T10:52:57.199Z,805.00
2023-05-17T10:53:57.209Z,800.00
2023-05-17T10:54:57.256Z,795.00
2023-05-17T10:55:57.164Z,794.00
2023-05-17T10:56:57.167Z,789.00
2023-05-17T10:57:57.173Z,781.00
2023-05-17T10:58:57.177Z,773.00
2023-05-17T10:59:57.145Z,766.00
2023-05-17T11:00:57.126Z,762.00
2023-05-17T11:01:57.156Z,759.00
2023-05-17T11:02:57.171Z,754.00
2023-05-17T11:03:57.096Z,749.00
2023-05-17T11:04:57.132Z,736.00
2023-05-17T11:05:57.121Z,726.00
2023-05-17T11:06:57.170Z,721.00
2023-05-17T11:07:57.098Z,715.00
2023-05-17T11:08:57.145Z,711.00
2023-05-17T11:09:57.128Z,705.00
2023-05-17T11:10:57.068Z,704.00
2023-05-17T11:11:57.062Z,703.00
2023-05-17T11:12:57.108Z,695.00
2023-05-17T11:13:57.085Z,703.00
2023-05-17T11:14:57.154Z,687.00
2023-05-17T11:15:57.087Z,689.00
2023-05-17T11:16:58.229Z,686.00
2023-05-17T11:17:57.248Z,681.00
2023-05-17T11:18:57.352Z,679.00
2023-05-17T11:19:57.257Z,673.00
2023-05-17T11:20:57.378Z,674.00
2023-05-17T11:21:57.154Z,674.00
2023-05-17T11:22:57.154Z,669.00
2023-05-17T11:23:57.250Z,664.00
2023-05-17T11:24:57.272Z,661.00
2023-05-17T11:26:02.975Z,658.00
2023-05-17T11:26:58.336Z,657.00
2023-05-17T11:27:57.294Z,658.00
2023-05-17T11:28:57.314Z,666.00
2023-05-17T11:29:57.309Z,656.00
2023-05-17T11:30:57.286Z,661.00
2023-05-17T11:31:57.285Z,661.00
2023-05-17T11:32:57.336Z,683.00
2023-05-17T11:33:57.335Z,740.00
2023-05-17T11:34:57.256Z,806.00
2023-05-17T11:35:57.296Z,826.00
2023-05-17T11:36:57.260Z,827.00
2023-05-17T11:37:57.272Z,848.00
2023-05-17T11:39:07.481Z,858.00
2023-05-17T11:39:58.242Z,905.00
2023-05-17T11:40:57.252Z,866.00
2023-05-17T11:41:57.216Z,872.00
2023-05-17T11:42:57.198Z,874.00
2023-05-17T11:43:57.215Z,876.00
2023-05-17T11:44:57.183Z,877.00
2023-05-17T11:45:57.217Z,876.00
2023-05-17T11:46:57.190Z,869.00
2023-05-17T11:47:57.344Z,869.00
2023-05-17T11:48:57.275Z,859.00
2023-05-17T11:49:57.178Z,852.00
2023-05-17T11:50:57.364Z,850.00
2023-05-17T11:51:57.128Z,843.00
2023-05-17T11:52:57.145Z,840.00
2023-05-17T11:53:57.134Z,844.00
2023-05-17T11:54:57.141Z,832.00
2023-05-17T11:55:57.163Z,827.00
2023-05-17T11:56:57.116Z,826.00
2023-05-17T11:57:57.117Z,824.00
2023-05-17T11:58:57.128Z,816.00
2023-05-17T11:59:57.090Z,809.00
2023-05-17T12:00:57.396Z,804.00
2023-05-17T12:01:57.080Z,802.00
2023-05-17T12:02:57.127Z,787.00
2023-05-17T12:03:57.068Z,781.00
2023-05-17T12:04:57.199Z,780.00
2023-05-17T12:05:57.090Z,771.00
2023-05-17T12:06:57.063Z,767.00
2023-05-17T12:07:57.051Z,755.00
2023-05-17T12:08:57.705Z,755.00
2023-05-17T12:09:57.043Z,751.00
2023-05-17T12:10:57.013Z,745.00
2023-05-17T12:11:57.032Z,739.00
2023-05-17T12:12:57.021Z,736.00
2023-05-17T12:13:57.018Z,733.00
2023-05-17T12:14:57.018Z,726.00
2023-05-17T12:15:57.007Z,720.00
2023-05-17T12:16:56.985Z,720.00
2023-05-17T12:17:57.045Z,719.00
2023-05-17T12:18:57.128Z,716.00
2023-05-17T12:19:57.092Z,718.00
2023-05-17T12:20:57.000Z,719.00
2023-05-17T12:21:57.012Z,720.00
2023-05-17T12:22:57.057Z,722.00
2023-05-17T12:23:57.070Z,721.00
2023-05-17T12:24:57.143Z,723.00